Time;durP1;ratioP1;P1;durP2;ratioP2;P2;SDS_P1;SDS_P2;PMS_P1;PMS_P2;Temp;Humidity;BMP_temperature;BMP_pressure;BME280_temperature;BME280_humidity;BME280_pressure;Samples;Min_cycle;Max_cycle;Signal;HPM_P1;HPM_P2
2023/07/17 00:06:32;;;;;;;13.83;9.17;;;27.30;28.10;;;;;;20913805;28;20158;-56
2023/07/17 00:16:33;;;;;;;12.13;9.27;;;27.30;28.30;;;;;;20913008;28;20103;-56
2023/07/17 00:26:33;;;;;;;7.90;4.10;;;27.30;28.40;;;;;;20911800;28;20132;-55
2023/07/17 00:36:34;;;;;;;8.80;6.23;;;27.20;28.90;;;;;;20914569;28;20209;-56
2023/07/17 00:46:35;;;;;;;7.77;3.90;;;27.10;29.60;;;;;;20928380;28;20088;-56
2023/07/17 00:56:37;;;;;;;8.10;4.40;;;27.00;29.90;;;;;;20926152;28;20041;-56
2023/07/17 01:06:38;;;;;;;10.77;6.07;;;26.70;30.80;;;;;;20925912;28;20178;-57
2023/07/17 01:16:39;;;;;;;7.88;4.10;;;26.40;30.10;;;;;;20925677;28;20081;-56
2023/07/17 01:26:40;;;;;;;6.73;3.30;;;26.20;30.10;;;;;;20923753;28;20107;-56
2023/07/17 01:36:41;;;;;;;8.60;3.70;;;26.10;30.30;;;;;;20924077;28;20049;-55
2023/07/17 01:46:42;;;;;;;4.17;3.37;;;25.90;30.20;;;;;;20923175;28;20040;-57
2023/07/17 01:56:42;;;;;;;5.83;3.60;;;25.70;30.10;;;;;;20920519;28;20037;-55
2023/07/17 02:06:43;;;;;;;5.13;3.23;;;25.40;30.80;;;;;;20921730;28;20520;-55
2023/07/17 02:16:44;;;;;;;6.90;3.40;;;25.10;30.50;;;;;;20921041;28;20087;-54
2023/07/17 02:26:45;;;;;;;4.23;3.27;;;24.70;30.40;;;;;;20919184;28;20132;-56
2023/07/17 02:36:45;;;;;;;6.47;3.33;;;24.60;30.80;;;;;;20917984;28;20091;-55
2023/07/17 02:46:46;;;;;;;5.67;3.63;;;24.50;30.90;;;;;;20918863;28;20478;-56
2023/07/17 02:56:48;;;;;;;5.43;3.37;;;24.40;30.80;;;;;;20917844;28;20059;-55
2023/07/17 03:06:48;;;;;;;7.50;4.13;;;24.40;31.10;;;;;;20916706;28;20320;-55
2023/07/17 03:16:50;;;;;;;7.18;5.75;;;24.30;31.20;;;;;;20916121;28;20045;-57
2023/07/17 03:26:50;;;;;;;6.43;3.33;;;24.20;31.50;;;;;;20916335;28;20080;-55
2023/07/17 03:36:52;;;;;;;4.25;3.17;;;24.10;31.20;;;;;;20914651;28;20045;-56
2023/07/17 03:46:53;;;;;;;5.67;3.27;;;24.10;31.20;;;;;;20914603;28;20040;-57
2023/07/17 03:56:53;;;;;;;5.20;3.75;;;24.10;31.30;;;;;;20913751;28;20041;-55
2023/07/17 04:06:54;;;;;;;4.47;3.17;;;23.90;32.00;;;;;;20912318;28;20048;-55
2023/07/17 04:16:55;;;;;;;6.28;3.50;;;23.80;32.30;;;;;;20924513;28;20110;-55
2023/07/17 04:26:56;;;;;;;5.00;2.80;;;23.80;31.90;;;;;;20928380;28;20071;-55
2023/07/17 04:36:57;;;;;;;6.68;3.35;;;23.90;32.20;;;;;;20928674;28;20161;-55
2023/07/17 04:46:58;;;;;;;6.10;3.33;;;23.90;32.20;;;;;;20927607;28;20045;-56
2023/07/17 04:56:58;;;;;;;5.72;3.45;;;23.80;32.50;;;;;;20926777;28;20048;-54
2023/07/17 05:06:59;;;;;;;5.32;3.28;;;23.70;33.10;;;;;;20925026;28;20106;-56
2023/07/17 05:17:00;;;;;;;6.15;3.08;;;23.50;33.30;;;;;;20925362;28;20546;-56
2023/07/17 05:27:01;;;;;;;7.55;3.58;;;23.50;33.40;;;;;;20922950;28;20528;-55
2023/07/17 05:37:01;;;;;;;6.00;3.22;;;23.40;33.60;;;;;;20922655;28;20049;-55
2023/07/17 05:47:02;;;;;;;4.47;3.45;;;23.50;33.70;;;;;;20923699;28;20562;-56
2023/07/17 05:57:03;;;;;;;6.18;3.53;;;23.60;33.80;;;;;;20921339;28;20451;-56
2023/07/17 06:07:04;;;;;;;7.65;3.47;;;23.60;33.90;;;;;;20920406;28;20370;-56
2023/07/17 06:17:05;;;;;;;9.15;4.05;;;23.70;34.70;;;;;;20919973;28;20048;-56
2023/07/17 06:27:06;;;;;;;8.63;3.50;;;23.90;34.60;;;;;;20919102;28;20569;-57
2023/07/17 06:37:07;;;;;;;7.70;3.63;;;24.00;34.50;;;;;;20918435;28;20048;-55
2023/07/17 06:47:08;;;;;;;10.13;3.90;;;24.10;36.10;;;;;;20918901;28;20084;-56
2023/07/17 06:57:09;;;;;;;19.30;4.82;;;24.30;36.40;;;;;;20918040;28;20041;-56
2023/07/17 07:07:09;;;;;;;15.57;4.55;;;24.70;37.00;;;;;;20916690;28;20068;-56
2023/07/17 07:17:10;;;;;;;12.03;4.60;;;25.50;37.90;;;;;;20914878;28;20071;-55
2023/07/17 07:27:11;;;;;;;14.70;5.90;;;26.20;38.20;;;;;;20914631;28;20099;-55
2023/07/17 07:37:11;;;;;;;14.60;5.13;;;26.90;38.70;;;;;;20915154;28;20047;-55
2023/07/17 07:47:12;;;;;;;14.73;5.37;;;27.40;41.70;;;;;;20914318;28;20449;-56
2023/07/17 07:57:13;;;;;;;8.73;5.53;;;28.00;46.60;;;;;;20912564;28;20090;-55
2023/07/17 08:07:14;;;;;;;;;;;28.40;45.50;;;;;;20912083;28;20124;-56
2023/07/17 08:17:14;;;;;;;10.73;5.57;;;28.60;47.80;;;;;;20912964;28;20427;-57
2023/07/17 08:27:15;;;;;;;11.88;5.82;;;28.90;50.00;;;;;;20911253;28;20061;-56
2023/07/17 08:37:16;;;;;;;19.13;6.00;;;29.10;48.50;;;;;;20911693;28;20044;-57
2023/07/17 08:47:18;;;;;;;13.32;5.93;;;29.40;48.30;;;;;;20911566;28;20049;-55
2023/07/17 08:57:20;;;;;;;12.20;5.80;;;29.60;47.70;;;;;;20912559;28;20140;-55
2023/07/17 09:07:21;;;;;;;11.35;6.20;;;29.90;47.40;;;;;;20926422;28;20517;-57
2023/07/17 09:17:26;;;;;;;13.95;6.07;;;29.90;47.20;;;;;;20924525;28;20045;-56
2023/07/17 09:27:26;;;;;;;14.73;6.32;;;30.00;46.70;;;;;;20923647;28;20136;-57
2023/07/17 09:37:31;;;;;;;12.57;5.82;;;30.10;46.00;;;;;;20922460;28;20084;-56
2023/07/17 09:47:32;;;;;;;9.57;5.05;;;30.30;45.30;;;;;;20922055;28;20044;-58
2023/07/17 09:57:38;;;;;;;12.73;6.15;;;30.60;44.60;;;;;;20922222;28;20475;-59
2023/07/17 10:07:43;;;;;;;13.23;6.07;;;30.90;43.90;;;;;;20920509;28;20044;-56
2023/07/17 10:17:53;;;;;;;15.52;5.75;;;31.00;43.40;;;;;;20920066;28;20087;-57
2023/07/17 10:28:03;;;;;;;11.05;5.50;;;31.30;43.40;;;;;;20917980;28;20131;-56
2023/07/17 10:38:08;;;;;;;11.75;5.57;;;31.40;42.50;;;;;;20918427;28;20049;-58
2023/07/17 10:48:10;;;;;;;9.60;4.60;;;31.60;41.10;;;;;;20917045;28;20037;-56
2023/07/17 10:58:11;;;;;;;8.27;4.43;;;32.10;39.00;;;;;;20918150;28;20041;-56
2023/07/17 11:08:12;;;;;;;10.38;4.43;;;32.20;37.70;;;;;;20916972;28;20045;-58
2023/07/17 11:18:13;;;;;;;11.93;4.75;;;32.50;35.30;;;;;;20916180;28;20045;-56
2023/07/17 11:28:14;;;;;;;13.77;4.82;;;32.60;36.10;;;;;;20914091;28;20049;-58
2023/07/17 11:38:18;;;;;;;11.13;5.30;;;32.80;36.70;;;;;;20914900;28;20052;-55
2023/07/17 11:48:19;;;;;;;14.07;4.50;;;33.30;32.40;;;;;;20914537;28;20548;-56
2023/07/17 11:58:25;;;;;;;8.30;4.80;;;33.50;32.50;;;;;;20913796;28;20120;-57
2023/07/17 12:08:27;;;;;;;8.05;5.13;;;33.90;30.30;;;;;;20913538;28;20520;-57
2023/07/17 12:18:28;;;;;;;13.00;5.00;;;34.10;30.60;;;;;;20913038;28;20049;-57
2023/07/17 12:28:31;;;;;;;9.77;4.47;;;34.10;30.30;;;;;;20914727;28;20064;-56
2023/07/17 12:38:31;;;;;;;11.30;5.38;;;34.20;29.80;;;;;;20924554;28;20056;-56
2023/07/17 12:48:32;;;;;;;9.10;4.50;;;34.20;30.50;;;;;;20928104;28;20045;-58
2023/07/17 12:58:33;;;;;;;8.82;4.25;;;34.60;30.10;;;;;;20926858;28;20049;-56
2023/07/17 13:08:34;;;;;;;9.38;4.30;;;35.00;29.20;;;;;;20926731;28;20064;-57
2023/07/17 13:18:38;;;;;;;8.43;4.00;;;34.80;28.30;;;;;;20926572;28;20083;-56
2023/07/17 13:28:39;;;;;;;11.95;4.55;;;35.40;26.70;;;;;;20924884;28;20110;-57
2023/07/17 13:38:39;;;;;;;13.02;4.90;;;35.60;26.00;;;;;;20922971;28;20049;-58
2023/07/17 13:48:40;;;;;;;11.05;4.28;;;36.00;25.40;;;;;;20923553;28;20498;-56
2023/07/17 13:58:41;;;;;;;9.00;4.13;;;36.20;24.50;;;;;;20922914;28;20048;-56
2023/07/17 14:08:43;;;;;;;13.15;4.65;;;36.20;24.40;;;;;;20920467;28;20061;-56
2023/07/17 14:18:43;;;;;;;9.27;5.43;;;36.50;23.40;;;;;;20921400;28;20510;-56
2023/07/17 14:28:44;;;;;;;9.93;4.22;;;36.70;23.60;;;;;;20919926;28;20056;-56
2023/07/17 14:38:45;;;;;;;10.30;4.03;;;36.90;23.40;;;;;;20919477;28;20081;-56
2023/07/17 14:48:46;;;;;;;14.70;7.65;;;37.10;22.60;;;;;;20918952;28;20048;-56
2023/07/17 14:58:46;;;;;;;7.97;3.60;;;37.20;21.90;;;;;;20917601;28;20041;-57
2023/07/17 15:08:47;;;;;;;9.13;3.83;;;37.10;22.40;;;;;;20917327;28;20197;-56
2023/07/17 15:18:48;;;;;;;7.63;3.40;;;37.50;21.90;;;;;;20916265;28;20281;-55
2023/07/17 15:28:49;;;;;;;9.70;3.83;;;37.50;21.80;;;;;;20914148;28;20093;-57
2023/07/17 15:38:50;;;;;;;6.68;3.58;;;37.60;21.80;;;;;;20914880;28;20061;-57
2023/07/17 15:48:50;;;;;;;10.68;3.70;;;37.50;22.00;;;;;;20912452;28;20402;-56
2023/07/17 15:58:51;;;;;;;11.93;4.53;;;37.50;22.10;;;;;;20913543;28;20505;-57
2023/07/17 16:08:52;;;;;;;10.48;3.33;;;37.30;21.90;;;;;;20911307;28;20072;-57
2023/07/17 16:18:53;;;;;;;10.73;4.00;;;37.30;22.10;;;;;;20912001;28;20118;-57
2023/07/17 16:28:54;;;;;;;10.00;3.83;;;37.70;20.80;;;;;;20913366;28;20063;-56
2023/07/17 16:38:54;;;;;;;9.65;4.03;;;37.70;20.90;;;;;;20911590;28;20060;-57
2023/07/17 16:48:55;;;;;;;13.70;3.43;;;37.60;21.00;;;;;;20911545;28;20053;-56
2023/07/17 16:58:56;;;;;;;10.50;3.95;;;37.60;21.00;;;;;;20911157;28;20290;-56
2023/07/17 17:09:17;;;;;;;7.47;4.03;;;37.60;20.90;;;;;;20908672;28;20136;-58
2023/07/17 17:19:18;;;;;;;7.10;3.40;;;37.50;21.20;;;;;;20912018;28;20060;-57
2023/07/17 17:29:19;;;;;;;10.20;4.30;;;37.60;20.80;;;;;;20922376;28;20053;-59
2023/07/17 17:39:20;;;;;;;8.63;3.90;;;37.70;20.30;;;;;;20923457;28;20102;-57
2023/07/17 17:49:20;;;;;;;8.63;4.13;;;37.70;20.00;;;;;;20922948;28;20428;-58
2023/07/17 17:59:21;;;;;;;6.05;3.50;;;37.80;19.90;;;;;;20922195;28;20041;-56
2023/07/17 18:09:22;;;;;;;9.23;3.78;;;37.50;20.10;;;;;;20919974;28;20049;-58
2023/07/17 18:19:49;;;;;;;7.38;3.85;;;37.50;19.80;;;;;;20919912;28;20081;-56
2023/07/17 18:29:50;;;;;;;9.30;3.70;;;37.70;19.50;;;;;;20915280;28;20060;-56
2023/07/17 18:39:50;;;;;;;7.68;3.67;;;37.60;19.70;;;;;;20919570;28;20057;-56
2023/07/17 18:49:51;;;;;;;11.20;4.35;;;37.50;19.90;;;;;;20916606;28;20041;-58
2023/07/17 18:59:52;;;;;;;11.38;4.82;;;37.00;20.60;;;;;;20917456;28;20128;-57
2023/07/17 19:09:54;;;;;;;14.60;6.10;;;36.60;20.80;;;;;;20916691;28;20048;-57
2023/07/17 19:19:55;;;;;;;11.02;5.20;;;36.40;21.20;;;;;;20914728;28;20118;-57
2023/07/17 19:29:56;;;;;;;16.77;6.82;;;36.10;21.90;;;;;;20914727;28;20080;-57
2023/07/17 19:39:56;;;;;;;11.98;5.95;;;35.90;22.30;;;;;;20912960;28;20084;-57
2023/07/17 19:49:57;;;;;;;13.27;6.20;;;35.60;22.90;;;;;;20913348;28;20394;-57
2023/07/17 19:59:58;;;;;;;13.07;5.25;;;35.30;23.40;;;;;;20913036;28;20052;-58
2023/07/17 20:09:58;;;;;;;16.65;6.10;;;35.10;23.60;;;;;;20911039;28;20090;-58
2023/07/17 20:19:59;;;;;;;15.65;10.27;;;34.90;24.00;;;;;;20912410;28;20123;-57
2023/07/17 20:30:00;;;;;;;23.15;19.52;;;34.60;24.30;;;;;;20912219;28;20056;-57
2023/07/17 20:40:03;;;;;;;16.10;7.13;;;34.50;24.70;;;;;;20911692;28;20102;-56
2023/07/17 20:50:05;;;;;;;13.73;7.38;;;34.30;24.90;;;;;;20911638;28;20123;-57
2023/07/17 21:00:07;;;;;;;12.57;9.20;;;34.10;25.60;;;;;;20923948;28;20052;-59
2023/07/17 21:10:08;;;;;;;15.00;6.28;;;33.90;26.40;;;;;;20926688;28;20131;-57
2023/07/17 21:20:10;;;;;;;12.55;7.03;;;33.50;27.00;;;;;;20924433;28;20093;-57
2023/07/17 21:30:11;;;;;;;14.48;7.45;;;33.30;27.20;;;;;;20925095;28;20041;-57
2023/07/17 21:40:12;;;;;;;15.60;8.68;;;33.10;27.60;;;;;;20924341;28;20044;-58
2023/07/17 21:50:13;;;;;;;13.40;6.72;;;32.80;28.40;;;;;;20922208;28;20049;-59
2023/07/17 22:00:14;;;;;;;11.68;6.50;;;32.60;28.40;;;;;;20923007;28;20434;-57
2023/07/17 22:10:15;;;;;;;15.63;6.60;;;32.40;28.90;;;;;;20922097;28;20133;-59
2023/07/17 22:20:16;;;;;;;14.90;6.35;;;32.20;29.10;;;;;;20920819;28;20085;-57
2023/07/17 22:30:17;;;;;;;15.02;8.88;;;32.10;29.20;;;;;;20920799;28;20053;-57
2023/07/17 22:40:18;;;;;;;15.20;7.05;;;32.00;29.50;;;;;;20920120;28;20049;-56
2023/07/17 22:50:18;;;;;;;14.23;5.90;;;32.00;29.70;;;;;;20918080;28;20044;-57
2023/07/17 23:00:20;;;;;;;15.05;7.10;;;32.10;29.50;;;;;;20918368;28;20355;-57
2023/07/17 23:10:21;;;;;;;13.35;8.60;;;32.10;29.50;;;;;;20916466;28;20044;-56
2023/07/17 23:20:21;;;;;;;11.65;6.93;;;32.00;30.20;;;;;;20916112;28;20128;-57
2023/07/17 23:30:22;;;;;;;13.75;6.45;;;31.70;30.80;;;;;;20915935;28;20045;-57
2023/07/17 23:40:23;;;;;;;14.35;6.82;;;31.70;30.70;;;;;;20915455;28;20095;-56
2023/07/17 23:50:24;;;;;;;14.68;6.43;;;31.50;31.40;;;;;;20914503;28;20403;-56
